createdAt,value
2018-06-11T00:01:47.818Z,99.90
2018-06-11T00:04:16.537Z,99.90
2018-06-11T00:06:44.881Z,99.90
2018-06-11T00:09:13.402Z,99.90
2018-06-11T00:11:41.901Z,99.90
2018-06-11T00:14:11.539Z,99.90
2018-06-11T00:16:40.031Z,99.90
2018-06-11T00:19:08.847Z,99.90
2018-06-11T00:21:37.249Z,99.90
2018-06-11T00:24:05.620Z,99.90
2018-06-11T00:26:34.248Z,99.90
2018-06-11T00:29:02.714Z,99.90
2018-06-11T00:31:31.282Z,99.90
2018-06-11T00:33:59.621Z,99.90
2018-06-11T00:36:28.607Z,99.90
2018-06-11T00:38:56.980Z,99.90
2018-06-11T00:41:25.649Z,99.90
2018-06-11T00:43:54.026Z,99.90
2018-06-11T00:46:23.322Z,99.90
2018-06-11T00:48:52.425Z,99.90
2018-06-11T00:51:20.841Z,99.90
2018-06-11T00:53:49.419Z,99.90
2018-06-11T00:56:23.735Z,99.90
2018-06-11T00:58:52.196Z,99.90
2018-06-11T01:01:21.284Z,99.90
2018-06-11T01:03:49.754Z,99.90
2018-06-11T01:06:18.134Z,99.90
2018-06-11T01:08:47.272Z,99.90
2018-06-11T01:11:15.994Z,99.90
2018-06-11T01:13:44.772Z,99.90
2018-06-11T01:16:13.152Z,99.90
2018-06-11T01:18:42.118Z,99.90
2018-06-11T01:21:10.471Z,99.90
2018-06-11T01:23:38.832Z,99.90
2018-06-11T01:26:07.178Z,99.90
2018-06-11T01:28:35.557Z,99.90
2018-06-11T01:31:04.148Z,99.90
2018-06-11T01:33:32.499Z,99.90
2018-06-11T01:36:00.917Z,99.90
2018-06-11T01:38:29.303Z,99.90
2018-06-11T01:40:57.659Z,99.90
2018-06-11T01:43:26.030Z,99.90
2018-06-11T01:45:54.703Z,99.90
2018-06-11T01:48:23.067Z,99.90
2018-06-11T01:50:51.451Z,99.90
2018-06-11T01:53:19.834Z,99.90
2018-06-11T01:55:48.217Z,99.90
2018-06-11T01:58:16.776Z,99.90
2018-06-11T02:00:45.134Z,99.90
2018-06-11T02:03:14.268Z,99.90
2018-06-11T02:05:42.740Z,99.90
2018-06-11T02:08:11.129Z,99.90
2018-06-11T02:10:39.576Z,99.90
2018-06-11T02:13:08.715Z,99.90
2018-06-11T02:15:37.080Z,99.90
2018-06-11T02:18:05.426Z,99.90
2018-06-11T02:20:34.562Z,99.90
2018-06-11T02:23:02.944Z,99.90
2018-06-11T02:25:31.452Z,99.90
2018-06-11T02:27:59.789Z,99.90
2018-06-11T02:30:28.204Z,99.90
2018-06-11T02:32:56.546Z,99.90
2018-06-11T02:35:24.942Z,99.90
2018-06-11T02:37:53.294Z,99.90
2018-06-11T02:40:21.922Z,99.90
2018-06-11T02:42:50.253Z,99.90
2018-06-11T02:45:19.525Z,99.90
2018-06-11T02:47:47.862Z,99.90
2018-06-11T02:50:16.234Z,99.90
2018-06-11T02:52:44.662Z,99.90
2018-06-11T02:55:13.033Z,99.90
2018-06-11T02:57:41.396Z,99.90
2018-06-11T03:00:09.790Z,99.90
2018-06-11T03:02:38.211Z,99.90
2018-06-11T03:05:07.537Z,99.90
2018-06-11T03:07:35.918Z,99.90
2018-06-11T03:10:04.416Z,99.90
2018-06-11T03:12:32.821Z,99.90
2018-06-11T03:15:01.318Z,99.90
2018-06-11T03:17:29.678Z,99.90
2018-06-11T03:19:58.037Z,99.90
2018-06-11T03:22:26.373Z,99.90
2018-06-11T03:24:54.769Z,99.90
2018-06-11T03:27:23.149Z,99.90
2018-06-11T03:29:51.848Z,99.90
2018-06-11T03:32:20.209Z,99.90
2018-06-11T03:34:48.580Z,99.90
2018-06-11T03:37:16.946Z,99.90
2018-06-11T03:39:46.187Z,99.90
2018-06-11T03:42:14.541Z,99.90
2018-06-11T03:44:42.966Z,99.90
2018-06-11T03:47:11.320Z,99.90
2018-06-11T03:49:39.683Z,99.90
2018-06-11T03:52:08.048Z,99.90
2018-06-11T03:54:37.222Z,99.90
2018-06-11T03:57:05.555Z,99.90
2018-06-11T03:59:33.918Z,99.90
2018-06-11T04:02:02.329Z,99.90
2018-06-11T04:04:30.686Z,99.90
2018-06-11T04:06:59.122Z,99.90
2018-06-11T04:09:28.268Z,99.90
2018-06-11T04:11:56.675Z,99.90
2018-06-11T04:14:25.045Z,99.90
2018-06-11T04:16:53.390Z,99.90
2018-06-11T04:19:21.750Z,99.90
2018-06-11T04:21:50.879Z,99.90
2018-06-11T04:24:19.222Z,99.90
2018-06-11T04:26:48.373Z,99.90
2018-06-11T04:29:16.727Z,99.90
2018-06-11T04:31:45.073Z,99.90
2018-06-11T04:34:14.545Z,99.90
2018-06-11T04:36:43.174Z,99.90
2018-06-11T04:39:11.562Z,99.90
2018-06-11T04:41:39.894Z,99.90
2018-06-11T04:44:08.311Z,99.90
2018-06-11T04:46:37.473Z,99.90
2018-06-11T04:49:06.043Z,99.90
2018-06-11T04:51:34.442Z,99.90
2018-06-11T04:54:02.825Z,99.90
2018-06-11T04:56:31.277Z,99.90
2018-06-11T04:58:59.629Z,99.90
2018-06-11T05:01:28.047Z,99.90
2018-06-11T05:03:56.491Z,99.90
2018-06-11T05:06:25.605Z,99.90
2018-06-11T05:08:54.307Z,99.90
2018-06-11T05:11:22.668Z,99.90
2018-06-11T05:13:51.075Z,99.90
2018-06-11T05:16:19.463Z,99.90
2018-06-11T05:18:47.815Z,99.90
2018-06-11T05:21:16.167Z,99.90
2018-06-11T05:23:45.285Z,99.90
2018-06-11T05:26:13.762Z,99.90
2018-06-11T05:28:42.118Z,99.90
2018-06-11T05:31:10.668Z,99.90
2018-06-11T05:33:39.070Z,99.90
2018-06-11T05:36:08.200Z,99.90
2018-06-11T05:38:36.561Z,99.90
2018-06-11T05:41:05.673Z,99.90
2018-06-11T05:43:34.035Z,99.90
2018-06-11T05:46:02.415Z,99.90
2018-06-11T05:48:31.658Z,99.90
2018-06-11T05:51:00.108Z,99.90
2018-06-11T05:53:28.599Z,99.90
2018-06-11T05:55:56.954Z,99.90
2018-06-11T05:58:26.167Z,99.90
2018-06-11T06:00:54.544Z,99.90
2018-06-11T06:03:22.935Z,99.90
2018-06-11T06:05:51.851Z,99.90
2018-06-11T06:08:20.195Z,99.90
2018-06-11T06:10:48.542Z,99.90
2018-06-11T06:13:17.690Z,99.90
2018-06-11T06:15:46.075Z,99.90
2018-06-11T06:18:14.484Z,99.90
2018-06-11T06:20:42.863Z,99.90
2018-06-11T06:23:11.225Z,99.90
2018-06-11T06:25:39.613Z,99.90
2018-06-11T06:28:08.190Z,99.90
2018-06-11T06:30:36.583Z,99.90
2018-06-11T06:33:04.985Z,99.90
2018-06-11T06:35:33.533Z,99.90
2018-06-11T06:38:01.948Z,99.90
2018-06-11T06:40:30.479Z,99.90
2018-06-11T06:42:59.606Z,99.90
2018-06-11T06:45:27.956Z,99.90
2018-06-11T06:47:56.299Z,99.90
2018-06-11T06:50:25.424Z,99.90
2018-06-11T06:52:53.941Z,99.90
2018-06-11T06:55:22.306Z,99.90
2018-06-11T06:57:50.771Z,99.90
2018-06-11T07:00:19.138Z,99.90
2018-06-11T07:02:47.496Z,99.90
2018-06-11T07:05:16.610Z,99.90
2018-06-11T07:07:44.972Z,99.90
2018-06-11T07:10:14.096Z,99.90
2018-06-11T07:12:42.442Z,99.90
2018-06-11T07:15:11.588Z,99.90
2018-06-11T07:17:40.045Z,99.90
2018-06-11T07:20:09.154Z,99.90
2018-06-11T07:22:37.494Z,99.90
2018-06-11T07:25:06.597Z,99.90
2018-06-11T07:27:34.970Z,99.90
2018-06-11T07:30:03.377Z,99.90
2018-06-11T07:32:31.755Z,99.90
2018-06-11T07:35:01.067Z,99.90
2018-06-11T07:37:29.374Z,99.90
2018-06-11T07:39:57.745Z,99.90
2018-06-11T07:42:27.019Z,99.90
2018-06-11T07:44:55.366Z,99.90
2018-06-11T07:47:24.477Z,99.90
2018-06-11T07:49:52.842Z,99.90
2018-06-11T07:52:21.959Z,99.90
2018-06-11T07:54:50.343Z,99.90
2018-06-11T07:57:18.744Z,99.90
2018-06-11T07:59:47.174Z,99.90
2018-06-11T08:02:16.914Z,99.90
2018-06-11T08:04:45.256Z,99.90
2018-06-11T08:07:13.619Z,99.90
2018-06-11T08:09:42.020Z,99.90
2018-06-11T08:12:10.549Z,99.90
2018-06-11T08:14:38.912Z,99.90
2018-06-11T08:17:07.300Z,99.40
2018-06-11T08:19:35.635Z,99.40
2018-06-11T08:22:03.991Z,98.80
2018-06-11T08:24:32.439Z,98.40
2018-06-11T08:27:00.827Z,98.30
2018-06-11T08:29:29.208Z,99.20
2018-06-11T08:31:57.690Z,99.10
2018-06-11T08:34:26.055Z,98.50
2018-06-11T08:36:54.447Z,98.70
2018-06-11T08:39:22.829Z,98.40
2018-06-11T08:41:51.843Z,98.20
2018-06-11T08:44:20.189Z,98.10
2018-06-11T08:46:48.605Z,98.10
2018-06-11T08:49:17.006Z,97.40
2018-06-11T08:51:46.231Z,98.10
2018-06-11T08:54:15.444Z,98.30
2018-06-11T08:56:43.790Z,98.20
2018-06-11T08:59:12.985Z,97.90
2018-06-11T09:01:42.137Z,97.50
2018-06-11T09:04:10.498Z,97.40
2018-06-11T09:06:38.849Z,97.60
2018-06-11T09:09:07.977Z,96.20
2018-06-11T09:11:36.369Z,96.20
2018-06-11T09:14:04.955Z,96.70
2018-06-11T09:16:33.305Z,97.00
2018-06-11T09:19:01.669Z,96.10
2018-06-11T09:21:30.793Z,96.60
2018-06-11T09:23:59.144Z,96.70
2018-06-11T09:26:28.277Z,98.10
2018-06-11T09:28:56.681Z,98.10
2018-06-11T09:31:25.145Z,98.60
2018-06-11T09:33:53.636Z,97.80
2018-06-11T09:36:22.012Z,96.80
2018-06-11T09:38:50.358Z,95.60
2018-06-11T09:41:18.734Z,94.90
2018-06-11T09:43:47.889Z,94.40
2018-06-11T09:46:16.198Z,94.40
2018-06-11T09:48:45.313Z,94.30
2018-06-11T09:51:13.688Z,94.20
2018-06-11T09:53:42.045Z,95.30
2018-06-11T09:56:11.165Z,93.50
2018-06-11T09:58:39.525Z,93.40
2018-06-11T10:01:08.723Z,92.40
2018-06-11T10:03:37.873Z,92.00
2018-06-11T10:06:06.369Z,92.00
2018-06-11T10:08:34.736Z,92.00
2018-06-11T10:11:03.153Z,91.00
2018-06-11T10:13:31.775Z,92.10
2018-06-11T10:16:00.184Z,92.20
2018-06-11T10:18:28.548Z,92.30
2018-06-11T10:20:57.144Z,93.50
2018-06-11T10:23:25.489Z,93.20
2018-06-11T10:25:54.006Z,90.10
2018-06-11T10:28:23.325Z,92.10
2018-06-11T10:30:51.804Z,90.80
2018-06-11T10:33:20.184Z,87.80
2018-06-11T10:35:48.532Z,89.50
2018-06-11T10:38:16.883Z,90.00
2018-06-11T10:40:45.250Z,87.80
2018-06-11T10:43:14.438Z,90.90
2018-06-11T10:45:42.948Z,90.90
2018-06-11T10:48:11.883Z,88.10
2018-06-11T10:50:40.220Z,91.60
2018-06-11T10:53:08.694Z,90.50
2018-06-11T10:55:37.310Z,86.20
2018-06-11T10:58:05.779Z,85.20
2018-06-11T11:00:34.154Z,83.50
2018-06-11T11:03:02.515Z,84.70
2018-06-11T11:05:32.137Z,85.70
2018-06-11T11:08:00.903Z,85.60
2018-06-11T11:10:30.231Z,85.40
2018-06-11T11:12:58.624Z,85.40
2018-06-11T11:15:27.150Z,86.00
2018-06-11T11:17:55.717Z,83.40
2018-06-11T11:20:24.297Z,83.70
2018-06-11T11:22:52.857Z,85.30
2018-06-11T11:25:21.236Z,81.80
2018-06-11T11:27:49.848Z,81.10
2018-06-11T11:30:18.237Z,76.90
2018-06-11T11:32:47.213Z,85.50
2018-06-11T11:35:16.407Z,84.90
2018-06-11T11:37:44.786Z,85.10
2018-06-11T11:40:13.252Z,78.10
2018-06-11T11:42:41.755Z,79.10
2018-06-11T11:45:10.222Z,81.70
2018-06-11T11:47:38.743Z,82.20
2018-06-11T11:50:07.173Z,86.20
2018-06-11T11:52:35.641Z,80.30
2018-06-11T11:55:03.984Z,81.10
2018-06-11T11:57:32.494Z,79.40
2018-06-11T12:00:01.277Z,76.70
2018-06-11T12:02:30.510Z,78.80
2018-06-11T12:04:59.220Z,78.60
2018-06-11T12:07:28.406Z,72.30
2018-06-11T12:09:56.965Z,72.30
2018-06-11T12:12:26.234Z,75.70
2018-06-11T12:14:54.759Z,75.50
2018-06-11T12:17:23.126Z,75.00
2018-06-11T12:19:51.686Z,70.40
2018-06-11T12:22:20.137Z,71.40
2018-06-11T12:24:48.558Z,69.70
2018-06-11T12:27:17.680Z,70.70
2018-06-11T12:29:46.054Z,70.70
2018-06-11T12:32:14.395Z,70.10
2018-06-11T12:34:42.862Z,68.30
2018-06-11T12:37:11.485Z,70.70
2018-06-11T12:39:40.008Z,66.00
2018-06-11T12:42:08.453Z,68.30
2018-06-11T12:44:37.590Z,67.70
2018-06-11T12:47:06.366Z,67.60
2018-06-11T12:49:34.748Z,66.70
2018-06-11T12:52:03.303Z,66.90
2018-06-11T12:54:31.739Z,66.00
2018-06-11T12:57:00.144Z,65.30
2018-06-11T12:59:28.558Z,63.50
2018-06-11T13:01:56.920Z,63.30
2018-06-11T13:04:26.054Z,63.60
2018-06-11T13:13:40.167Z,61.10
2018-06-11T13:16:08.590Z,60.60
2018-06-11T13:18:37.710Z,63.20
2018-06-11T13:21:06.097Z,63.10
2018-06-11T13:23:34.581Z,60.60
2018-06-11T13:26:03.100Z,60.00
2018-06-11T13:28:31.549Z,59.90
2018-06-11T13:30:59.894Z,60.30
2018-06-11T13:33:28.262Z,59.90
2018-06-11T13:35:57.393Z,59.90
2018-06-11T13:38:25.755Z,59.90
2018-06-11T13:40:55.796Z,61.50
2018-06-11T13:43:24.140Z,61.50
2018-06-11T13:45:53.240Z,60.50
2018-06-11T13:48:21.673Z,60.00
2018-06-11T13:50:50.053Z,59.40
2018-06-11T13:53:18.646Z,60.80
2018-06-11T13:55:46.997Z,61.30
2018-06-11T13:58:15.446Z,59.40
2018-06-11T14:00:43.914Z,59.60
2018-06-11T14:03:13.062Z,59.90
2018-06-11T14:05:41.492Z,59.60
2018-06-11T14:08:10.986Z,60.20
2018-06-11T14:10:39.410Z,58.80
2018-06-11T14:13:07.747Z,58.10
2018-06-11T14:15:36.889Z,57.10
2018-06-11T14:18:05.866Z,57.30
2018-06-11T14:20:34.261Z,58.30
2018-06-11T14:23:02.606Z,58.10
2018-06-11T14:25:32.060Z,58.90
2018-06-11T14:28:00.577Z,58.80
2018-06-11T14:30:28.998Z,59.00
2018-06-11T14:32:58.122Z,59.40
2018-06-11T14:35:26.626Z,58.10
2018-06-11T14:37:55.038Z,57.40
2018-06-11T14:40:23.391Z,56.40
2018-06-11T14:42:52.487Z,56.50
2018-06-11T14:45:20.835Z,57.20
2018-06-11T14:47:49.221Z,55.80
2018-06-11T14:50:17.568Z,56.90
2018-06-11T14:52:45.965Z,55.20
2018-06-11T14:55:14.501Z,55.60
2018-06-11T14:57:43.655Z,55.20
2018-06-11T15:00:12.067Z,55.20
2018-06-11T15:02:40.438Z,56.60
2018-06-11T15:05:08.794Z,57.60
2018-06-11T15:07:37.231Z,55.70
2018-06-11T15:10:06.394Z,55.70
2018-06-11T15:12:34.848Z,55.60
2018-06-11T15:15:03.222Z,56.90
2018-06-11T15:17:31.639Z,57.80
2018-06-11T15:19:59.983Z,55.40
2018-06-11T15:22:28.402Z,54.30
2018-06-11T15:24:56.773Z,52.70
2018-06-11T15:27:25.118Z,52.40
2018-06-11T15:29:53.494Z,55.10
2018-06-11T15:32:21.906Z,52.50
2018-06-11T15:34:50.276Z,54.30
2018-06-11T15:37:18.639Z,53.00
2018-06-11T15:39:47.034Z,52.70
2018-06-11T15:42:15.448Z,54.30
2018-06-11T15:44:43.800Z,54.50
2018-06-11T15:47:12.152Z,55.40
2018-06-11T15:49:40.550Z,56.20
2018-06-11T15:52:08.912Z,56.40
2018-06-11T15:54:37.277Z,55.80
2018-06-11T15:57:05.670Z,56.40
2018-06-11T15:59:34.080Z,57.10
2018-06-11T16:02:02.413Z,58.50
2018-06-11T16:04:30.910Z,58.20
2018-06-11T16:06:59.441Z,57.50
2018-06-11T16:09:27.875Z,57.90
2018-06-11T16:11:56.279Z,58.30
2018-06-11T16:14:24.648Z,57.80
2018-06-11T16:16:53.164Z,59.70
2018-06-11T16:19:21.487Z,60.60
2018-06-11T16:21:50.083Z,59.30
2018-06-11T16:24:18.462Z,59.70
2018-06-11T16:26:46.805Z,60.30
2018-06-11T16:29:15.813Z,61.80
2018-06-11T16:31:44.235Z,61.00
2018-06-11T16:34:12.570Z,60.50
2018-06-11T16:36:41.562Z,61.50
2018-06-11T16:39:09.917Z,62.20
2018-06-11T16:41:38.460Z,62.80
2018-06-11T16:44:06.829Z,63.40
2018-06-11T16:46:35.302Z,63.70
2018-06-11T16:49:03.747Z,64.20
2018-06-11T16:51:32.068Z,64.30
2018-06-11T16:54:00.560Z,63.90
2018-06-11T16:56:28.896Z,64.70
2018-06-11T16:58:57.318Z,62.80
2018-06-11T17:01:25.795Z,63.30
2018-06-11T17:03:54.175Z,63.90
2018-06-11T17:06:22.606Z,64.40
2018-06-11T17:08:50.916Z,64.80
2018-06-11T17:11:19.301Z,64.90
2018-06-11T17:13:47.662Z,66.10
2018-06-11T17:16:16.375Z,63.80
2018-06-11T17:18:44.715Z,63.80
2018-06-11T17:21:13.870Z,64.40
2018-06-11T17:23:42.274Z,64.40
2018-06-11T17:26:11.399Z,66.20
2018-06-11T17:28:39.769Z,66.20
2018-06-11T17:31:08.138Z,66.40
2018-06-11T17:33:37.327Z,67.80
2018-06-11T17:36:05.769Z,67.70
2018-06-11T17:38:34.819Z,68.40
2018-06-11T17:41:05.256Z,67.80
2018-06-11T17:43:34.650Z,67.80
2018-06-11T17:46:03.010Z,67.80
2018-06-11T17:48:32.316Z,68.30
2018-06-11T17:51:00.681Z,68.30
2018-06-11T17:53:29.042Z,68.40
2018-06-11T17:55:58.271Z,68.70
2018-06-11T17:58:27.396Z,67.80
2018-06-11T18:00:55.803Z,67.70
2018-06-11T18:03:24.368Z,68.50
2018-06-11T18:05:52.732Z,67.90
2018-06-11T18:08:21.130Z,67.60
2018-06-11T18:10:49.479Z,67.60
2018-06-11T18:13:18.600Z,67.90
2018-06-11T18:15:47.006Z,67.90
2018-06-11T18:18:15.454Z,68.70
2018-06-11T18:20:44.598Z,69.90
2018-06-11T18:23:12.936Z,69.90
2018-06-11T18:25:41.338Z,70.50
2018-06-11T18:28:09.676Z,71.50
2018-06-11T18:30:38.909Z,72.00
2018-06-11T18:33:07.251Z,72.00
2018-06-11T18:35:36.430Z,72.40
2018-06-11T18:38:04.827Z,72.30
2018-06-11T18:40:33.289Z,72.90
2018-06-11T18:43:01.663Z,73.00
2018-06-11T18:45:30.103Z,73.00
2018-06-11T18:47:58.602Z,73.40
2018-06-11T18:50:27.124Z,73.60
2018-06-11T18:52:55.490Z,72.30
2018-06-11T18:55:23.833Z,71.50
2018-06-11T18:57:52.195Z,70.80
2018-06-11T19:00:20.539Z,70.00
2018-06-11T19:02:49.711Z,68.40
2018-06-11T19:05:18.100Z,68.30
2018-06-11T19:07:46.563Z,68.10
2018-06-11T19:10:14.911Z,69.00
2018-06-11T19:12:43.269Z,70.20
2018-06-11T19:15:12.402Z,72.50
2018-06-11T19:17:41.178Z,72.30
2018-06-11T19:20:09.473Z,73.10
2018-06-11T19:22:37.861Z,74.00
2018-06-11T19:25:06.214Z,75.60
2018-06-11T19:27:34.620Z,76.80
2018-06-11T19:30:03.280Z,78.10
2018-06-11T19:32:31.636Z,78.90
2018-06-11T19:35:00.784Z,80.50
2018-06-11T19:37:29.208Z,80.40
2018-06-11T19:39:58.342Z,81.40
2018-06-11T19:42:26.682Z,81.30
2018-06-11T19:44:56.209Z,81.50
2018-06-11T19:47:25.300Z,81.80
2018-06-11T19:49:53.743Z,81.80
2018-06-11T19:52:22.066Z,81.80
2018-06-11T19:54:50.414Z,82.00
2018-06-11T20:03:26.491Z,83.40
2018-06-11T20:05:54.967Z,83.80
2018-06-11T20:08:23.384Z,84.20
2018-06-11T20:10:53.146Z,85.00
2018-06-11T20:13:21.504Z,84.90
2018-06-11T20:15:49.971Z,85.10
2018-06-11T20:18:18.355Z,85.60
2018-06-11T20:20:47.938Z,85.90
2018-06-11T20:23:16.310Z,85.80
2018-06-11T20:25:44.927Z,86.30
2018-06-11T20:28:14.089Z,86.10
2018-06-11T20:30:42.439Z,86.10
2018-06-11T20:33:10.811Z,86.20
2018-06-11T20:35:39.190Z,86.70
2018-06-11T20:38:08.257Z,86.60
2018-06-11T20:40:36.674Z,86.70
2018-06-11T20:43:05.086Z,87.30
2018-06-11T20:45:34.317Z,87.70
2018-06-11T20:48:02.669Z,88.00
2018-06-11T20:50:31.043Z,88.80
2018-06-11T20:52:59.493Z,88.90
2018-06-11T20:55:27.838Z,88.70
2018-06-11T20:57:56.229Z,89.00
2018-06-11T21:00:24.624Z,89.40
2018-06-11T21:02:52.982Z,90.10
2018-06-11T21:05:21.351Z,90.00
2018-06-11T21:07:49.712Z,90.20
2018-06-11T21:10:18.823Z,90.20
2018-06-11T21:12:47.173Z,90.50
2018-06-11T21:15:15.510Z,90.80
2018-06-11T21:17:43.882Z,91.00
2018-06-11T21:20:12.577Z,91.20
2018-06-11T21:22:41.056Z,91.50
2018-06-11T21:25:09.499Z,91.70
2018-06-11T21:27:37.804Z,92.00
2018-06-11T21:30:06.224Z,92.30
2018-06-11T21:32:34.589Z,92.40
2018-06-11T21:35:02.968Z,93.10
2018-06-11T21:37:31.368Z,92.90
2018-06-11T21:39:59.713Z,93.20
2018-06-11T21:42:28.073Z,93.40
2018-06-11T21:44:56.647Z,93.40
2018-06-11T21:47:25.880Z,94.10
2018-06-11T21:49:54.264Z,94.00
2018-06-11T21:52:22.685Z,94.20
2018-06-11T21:54:51.009Z,94.50
2018-06-11T21:57:19.458Z,94.80
2018-06-11T21:59:48.562Z,95.20
2018-06-11T22:02:16.965Z,95.20
2018-06-11T22:04:45.367Z,95.60
2018-06-11T22:07:13.702Z,96.00
2018-06-11T22:09:42.070Z,96.30
2018-06-11T22:12:11.208Z,96.50
2018-06-11T22:14:39.663Z,96.50
2018-06-11T22:17:08.166Z,96.60
2018-06-11T22:19:36.522Z,96.90
2018-06-11T22:22:04.941Z,97.00
2018-06-11T22:24:33.328Z,97.20
2018-06-11T22:27:01.725Z,97.50
2018-06-11T22:29:30.038Z,97.70
2018-06-11T22:31:58.623Z,98.50
2018-06-11T22:34:27.718Z,98.70
2018-06-11T22:39:59.168Z,98.80
2018-06-11T22:42:27.648Z,99.00
2018-06-11T22:44:56.018Z,99.20
2018-06-11T22:47:24.450Z,99.30
2018-06-11T22:49:52.810Z,99.30
2018-06-11T22:52:21.149Z,99.50
2018-06-11T22:54:49.580Z,99.40
2018-06-11T22:57:18.042Z,99.50
2018-06-11T22:59:46.402Z,99.70
2018-06-11T23:02:14.850Z,99.80
2018-06-11T23:04:43.221Z,99.90
2018-06-11T23:07:11.566Z,99.90
2018-06-11T23:09:39.972Z,99.90
2018-06-11T23:12:08.367Z,99.90
2018-06-11T23:14:36.841Z,99.90
2018-06-11T23:17:05.452Z,99.90
2018-06-11T23:19:34.000Z,99.90
2018-06-11T23:22:02.358Z,99.90
2018-06-11T23:24:30.966Z,99.90
2018-06-11T23:26:59.313Z,99.90
2018-06-11T23:29:27.783Z,99.90
2018-06-11T23:31:56.151Z,99.90
2018-06-11T23:34:24.796Z,99.90
2018-06-11T23:36:53.250Z,99.90
2018-06-11T23:39:21.788Z,99.90
2018-06-11T23:42:07.822Z,99.90
2018-06-11T23:44:53.836Z,99.90
2018-06-11T23:50:13.707Z,99.90
2018-06-11T23:52:42.998Z,99.90
2018-06-11T23:55:11.456Z,99.90
2018-06-11T23:57:39.801Z,99.90
